Time;durP1;ratioP1;P1;durP2;ratioP2;P2;SDS_P1;SDS_P2;PMS_P1;PMS_P2;Temp;Humidity;BMP_temperature;BMP_pressure;BME280_temperature;BME280_humidity;BME280_pressure;Samples;Min_cycle;Max_cycle;Signal;HPM_P1;HPM_P2
2023/05/31 00:00:56;;;;;;;4.70;2.63;;;;;;;16.66;43.09;155641.03;4970762;28;20453;-82
2023/05/31 00:03:24;;;;;;;3.60;2.50;;;;;;;16.62;43.01;155630.66;4970131;28;20548;-81
2023/05/31 00:05:50;;;;;;;3.27;2.30;;;;;;;16.62;43.16;155631.97;4985146;28;20969;-82
2023/05/31 00:08:17;;;;;;;3.00;1.90;;;;;;;16.52;42.94;155605.88;4970310;28;20988;-82
2023/05/31 00:10:44;;;;;;;3.13;2.23;;;;;;;16.52;42.45;155605.88;5001406;28;20589;-81
2023/05/31 00:13:10;;;;;;;2.50;2.00;;;;;;;16.55;43.59;155613.72;4970274;28;20495;-82
2023/05/31 00:15:37;;;;;;;3.77;2.13;;;;;;;16.51;43.08;155601.97;5005802;28;20824;-82
2023/05/31 00:18:03;;;;;;;3.00;2.07;;;;;;;16.50;43.27;155600.66;4988003;28;20507;-82
2023/05/31 00:20:31;;;;;;;4.57;2.20;;;;;;;16.40;43.15;155574.66;5004741;28;20454;-82
2023/05/31 00:22:57;;;;;;;3.37;2.20;;;;;;;16.41;42.73;155577.28;5020953;28;20475;-82
2023/05/31 00:25:24;;;;;;;4.53;2.33;;;;;;;16.34;43.21;155559.06;5004587;28;20457;-82
2023/05/31 00:27:51;;;;;;;9.07;2.37;;;;;;;16.33;42.94;155557.78;5003421;28;20457;-82
2023/05/31 00:30:17;;;;;;;3.63;2.40;;;;;;;16.33;42.87;155557.78;5004370;28;20455;-82
2023/05/31 00:32:44;;;;;;;2.87;2.00;;;;;;;16.42;42.94;155579.88;5020273;28;20441;-82
2023/05/31 00:35:11;;;;;;;2.73;2.00;;;;;;;16.24;42.89;155534.34;4988262;28;20458;-82
2023/05/31 00:37:38;;;;;;;3.10;2.03;;;;;;;16.31;42.50;155551.25;4989408;28;20862;-82
2023/05/31 00:40:06;;;;;;;2.57;2.37;;;;;;;16.31;42.78;155551.25;5004493;28;20456;-82
2023/05/31 00:42:33;;;;;;;3.33;2.30;;;;;;;16.23;43.01;155530.47;5004064;28;20916;-82
2023/05/31 00:45:00;;;;;;;2.57;2.10;;;;;;;16.21;43.34;155525.25;4996035;28;20454;-82
2023/05/31 00:47:26;;;;;;;5.30;2.73;;;;;;;16.20;43.45;155523.94;4969021;28;20444;-82
2023/05/31 00:49:53;;;;;;;3.17;2.20;;;;;;;16.23;43.47;155531.75;4968202;28;20453;-82
2023/05/31 00:52:20;;;;;;;5.60;2.27;;;;;;;16.20;43.42;155522.66;4984327;28;20438;-82
2023/05/31 00:54:48;;;;;;;2.90;2.10;;;;;;;16.20;43.25;155522.66;4968264;28;20457;-82
2023/05/31 00:57:15;;;;;;;3.33;1.90;;;;;;;16.18;43.41;155517.44;4984520;28;20454;-82
2023/05/31 00:59:43;;;;;;;2.90;2.17;;;;;;;16.05;44.18;155483.63;4969651;28;20459;-82
2023/05/31 01:02:11;;;;;;;3.90;2.10;;;;;;;16.05;43.93;155483.63;5000689;28;20531;-82
2023/05/31 01:04:37;;;;;;;4.83;2.30;;;;;;;16.04;43.76;155481.06;4984382;28;20448;-82
2023/05/31 01:07:05;;;;;;;3.20;2.50;;;;;;;15.96;44.18;155460.25;4984541;28;20500;-82
2023/05/31 01:09:31;;;;;;;3.37;2.07;;;;;;;15.95;44.17;155457.63;4984131;28;20467;-82
2023/05/31 01:12:08;;;;;;;3.70;2.20;;;;;;;15.96;44.18;155460.25;4984156;28;20456;-82
2023/05/31 01:14:43;;;;;;;3.87;2.17;;;;;;;15.98;44.34;155465.44;4967970;28;20457;-82
2023/05/31 01:17:14;;;;;;;5.03;2.13;;;;;;;15.94;44.31;155455.06;5000481;28;20984;-82
2023/05/31 01:19:47;;;;;;;3.37;2.37;;;;;;;15.93;44.19;155452.44;5017869;28;20451;-82
2023/05/31 01:22:27;;;;;;;4.27;2.23;;;;;;;15.92;44.11;155449.81;4970782;28;20467;-82
2023/05/31 01:25:04;;;;;;;4.07;2.53;;;;;;;15.78;44.24;155416.03;5003584;28;20478;-82
2023/05/31 01:27:34;;;;;;;2.57;2.07;;;;;;;15.80;43.96;155421.25;5003766;28;20906;-82
2023/05/31 01:30:02;;;;;;;3.47;2.53;;;;;;;15.82;44.18;155425.13;4983733;28;20814;-82
2023/05/31 01:32:28;;;;;;;4.00;2.23;;;;;;;15.78;44.06;155416.03;4951762;28;20496;-82
2023/05/31 01:34:55;;;;;;;4.20;2.00;;;;;;;15.75;44.34;155408.22;4951948;28;20444;-82
2023/05/31 01:37:21;;;;;;;3.87;2.37;;;;;;;15.77;44.23;155413.47;5019494;28;20515;-82
2023/05/31 01:39:48;;;;;;;2.80;2.07;;;;;;;15.80;43.99;155419.94;4988580;28;20451;-82
2023/05/31 01:42:16;;;;;;;2.83;2.30;;;;;;;15.81;43.96;155422.53;5038093;28;20439;-82
2023/05/31 01:44:45;;;;;;;4.60;2.40;;;;;;;15.75;43.81;155406.97;5022801;28;20446;-82
2023/05/31 01:47:12;;;;;;;3.43;2.10;;;;;;;15.72;44.04;155400.47;4978221;28;20453;-82
2023/05/31 01:49:39;;;;;;;3.60;2.30;;;;;;;15.76;44.39;155409.53;4981664;28;20451;-82
2023/05/31 01:52:08;;;;;;;3.13;2.53;;;;;;;15.70;44.34;155395.22;5000965;28;20459;-82
2023/05/31 01:54:35;;;;;;;3.77;3.00;;;;;;;15.68;44.37;155390.03;4969305;28;20447;-82
2023/05/31 01:57:04;;;;;;;3.57;2.20;;;;;;;15.72;44.01;155400.47;4984266;28;20447;-82
2023/05/31 01:59:31;;;;;;;4.40;2.43;;;;;;;15.64;44.51;155378.34;4971732;28;20777;-82
2023/05/31 02:02:00;;;;;;;2.80;2.40;;;;;;;15.61;44.47;155370.53;4971388;28;20506;-82
2023/05/31 02:04:27;;;;;;;2.80;2.23;;;;;;;15.62;44.61;155373.16;4970608;28;20487;-82
2023/05/31 02:06:54;;;;;;;2.93;2.43;;;;;;;15.53;44.72;155351.06;5004059;28;20521;-82
2023/05/31 02:09:21;;;;;;;6.63;2.03;;;;;;;15.49;44.98;155340.63;4973769;28;20503;-82
2023/05/31 02:11:48;;;;;;;2.97;2.40;;;;;;;15.49;44.65;155340.63;4974728;28;20534;-82
2023/05/31 02:14:15;;;;;;;2.70;1.80;;;;;;;15.52;44.68;155347.13;4990263;28;20979;-82
2023/05/31 02:16:41;;;;;;;5.60;2.93;;;;;;;15.48;45.04;155338.06;5020702;28;20461;-82
2023/05/31 02:19:13;;;;;;;3.17;2.13;;;;;;;15.44;44.98;155326.28;4995808;28;20814;-82
2023/05/31 02:21:40;;;;;;;9.50;2.17;;;;;;;15.45;44.75;155328.91;5006327;28;20973;-82
2023/05/31 02:24:09;;;;;;;2.63;1.93;;;;;;;15.47;44.64;155335.44;5006525;28;20482;-82
2023/05/31 02:26:36;;;;;;;2.90;2.37;;;;;;;15.53;44.81;155349.75;5007124;28;20509;-82
2023/05/31 02:29:03;;;;;;;4.10;2.03;;;;;;;15.49;44.57;155339.38;5003359;28;20462;-82
2023/05/31 02:31:29;;;;;;;4.30;2.77;;;;;;;15.46;44.58;155332.81;5026434;28;20778;-82
2023/05/31 02:33:56;;;;;;;4.47;2.10;;;;;;;15.40;44.90;155315.91;5011142;28;20442;-82
2023/05/31 02:36:25;;;;;;;2.70;2.10;;;;;;;15.45;44.99;155330.19;5026254;28;20502;-82
2023/05/31 02:38:51;;;;;;;3.10;2.17;;;;;;;15.36;44.96;155305.47;5010878;28;20519;-82
2023/05/31 02:41:18;;;;;;;6.47;2.80;;;;;;;15.34;44.69;155301.59;5011078;28;20446;-82
2023/05/31 02:43:44;;;;;;;3.40;2.50;;;;;;;15.39;44.92;155313.28;5025458;28;20550;-82
2023/05/31 02:46:12;;;;;;;2.87;2.43;;;;;;;15.39;45.15;155313.28;4993895;28;20516;-82
2023/05/31 02:48:38;;;;;;;3.30;2.47;;;;;;;15.25;45.58;155279.50;5009368;28;20446;-82
2023/05/31 02:51:05;;;;;;;3.20;2.60;;;;;;;15.22;45.96;155270.44;4992702;28;20513;-82
2023/05/31 02:54:02;;;;;;;3.73;2.37;;;;;;;15.18;45.71;155260.00;4992873;28;20589;-82
2023/05/31 02:56:30;;;;;;;4.60;2.53;;;;;;;15.09;46.26;155237.91;4992751;28;20442;-82
2023/05/31 02:59:15;;;;;;;3.13;2.27;;;;;;;15.11;46.05;155241.84;4992682;28;20457;-82
2023/05/31 03:01:46;;;;;;;3.30;2.40;;;;;;;15.12;46.04;155245.72;5025094;28;20449;-82
2023/05/31 03:04:48;;;;;;;5.00;2.67;;;;;;;15.01;46.48;155215.88;4933158;29;20492;-82
2023/05/31 03:07:16;;;;;;;3.60;2.40;;;;;;;14.90;46.97;155187.28;4981330;28;20463;-82
2023/05/31 03:09:44;;;;;;;5.30;2.13;;;;;;;14.83;47.54;155170.34;5009251;28;20857;-82
2023/05/31 03:12:11;;;;;;;2.73;1.87;;;;;;;14.83;47.18;155170.34;4992663;28;20442;-82
2023/05/31 03:14:38;;;;;;;3.27;2.07;;;;;;;14.86;46.95;155178.16;5025305;28;20447;-82
2023/05/31 03:17:06;;;;;;;2.90;1.73;;;;;;;14.93;46.73;155195.06;4974018;28;20474;-82
2023/05/31 03:19:33;;;;;;;2.57;2.10;;;;;;;14.97;46.49;155206.75;4992329;28;20458;-82
2023/05/31 03:22:02;;;;;;;3.87;1.77;;;;;;;14.94;46.80;155198.94;4992888;28;20900;-82
2023/05/31 03:24:31;;;;;;;2.67;2.20;;;;;;;14.86;47.13;155178.16;4992223;28;20490;-82
2023/05/31 03:27:00;;;;;;;2.83;2.20;;;;;;;14.77;47.34;155153.50;4992398;28;20441;-82
2023/05/31 03:29:27;;;;;;;2.70;2.00;;;;;;;14.78;47.46;155156.06;4991674;28;20489;-82
2023/05/31 03:31:54;;;;;;;4.17;2.10;;;;;;;14.75;47.53;155148.25;5008391;28;20481;-82
2023/05/31 03:34:22;;;;;;;5.93;2.07;;;;;;;14.69;47.69;155132.72;4991335;28;20434;-81
2023/05/31 03:36:49;;;;;;;5.30;2.43;;;;;;;14.71;47.87;155139.22;4992552;28;20944;-82
2023/05/31 03:39:54;;;;;;;2.20;1.70;;;;;;;14.76;47.91;155150.88;4913653;29;20433;-82
2023/05/31 03:42:32;;;;;;;3.70;2.00;;;;;;;14.74;47.47;155145.69;4929811;29;20459;-81
2023/05/31 03:44:59;;;;;;;2.53;1.97;;;;;;;14.76;47.77;155150.88;4979624;28;20835;-81
2023/05/31 03:47:26;;;;;;;3.83;2.13;;;;;;;14.80;47.72;155161.31;4983767;28;20553;-81
2023/05/31 03:49:52;;;;;;;2.70;1.97;;;;;;;14.69;47.96;155132.72;5013409;28;20461;-82
2023/05/31 03:52:20;;;;;;;2.87;1.93;;;;;;;14.75;47.64;155148.25;4997554;28;20470;-81
2023/05/31 03:54:47;;;;;;;2.73;2.07;;;;;;;14.71;48.36;155137.91;4988771;28;20438;-81
2023/05/31 03:57:15;;;;;;;3.93;2.87;;;;;;;14.71;47.91;155139.22;4988288;28;20455;-82
2023/05/31 03:59:43;;;;;;;3.70;1.97;;;;;;;14.71;48.27;155137.91;4988441;28;21016;-82
2023/05/31 04:02:09;;;;;;;2.80;1.90;;;;;;;14.71;48.61;155139.22;4971917;28;21011;-82
2023/05/31 04:04:36;;;;;;;3.77;2.10;;;;;;;14.75;48.24;155148.25;4988576;28;20496;-82
2023/05/31 04:07:02;;;;;;;2.53;1.70;;;;;;;14.78;48.09;155156.06;4972345;28;20476;-81
2023/05/31 04:09:29;;;;;;;2.10;1.73;;;;;;;14.82;48.03;155167.78;4996812;28;20488;-81
2023/05/31 04:11:56;;;;;;;3.33;2.07;;;;;;;14.85;48.20;155174.28;4988078;28;20517;-82
2023/05/31 04:14:22;;;;;;;3.10;1.93;;;;;;;14.89;48.00;155184.66;4972266;28;20453;-82
2023/05/31 04:16:51;;;;;;;3.77;2.20;;;;;;;14.97;48.40;155205.44;4989634;28;20976;-82
2023/05/31 04:19:17;;;;;;;3.03;2.30;;;;;;;15.06;48.60;155228.84;5008218;28;20456;-82
2023/05/31 04:21:44;;;;;;;2.80;2.13;;;;;;;15.11;48.01;155241.84;4990980;28;20998;-82
2023/05/31 04:24:12;;;;;;;4.10;2.03;;;;;;;15.16;47.89;155254.81;4991398;28;20468;-82
2023/05/31 04:26:38;;;;;;;3.27;2.57;;;;;;;15.27;47.88;155283.44;4984111;28;20453;-82
2023/05/31 04:29:06;;;;;;;2.60;1.70;;;;;;;15.40;47.56;155315.91;4988218;28;20448;-82
2023/05/31 04:31:35;;;;;;;2.63;2.03;;;;;;;15.46;47.62;155332.81;4987610;28;20453;-82
2023/05/31 04:34:03;;;;;;;5.23;2.20;;;;;;;15.53;47.42;155349.75;5004703;28;20968;-82
2023/05/31 04:36:32;;;;;;;3.27;2.10;;;;;;;15.57;47.67;155361.44;4971569;28;20925;-82
2023/05/31 04:38:59;;;;;;;3.30;1.93;;;;;;;15.66;47.48;155384.84;4987542;28;20438;-82
2023/05/31 04:41:29;;;;;;;2.70;2.20;;;;;;;15.78;47.48;155416.03;4971332;28;20455;-82
2023/05/31 04:43:57;;;;;;;4.33;2.13;;;;;;;15.89;47.57;155442.00;4989879;28;20484;-83
2023/05/31 04:46:25;;;;;;;3.70;2.10;;;;;;;15.97;47.61;155464.13;4990044;28;20838;-82
2023/05/31 04:48:52;;;;;;;4.03;2.40;;;;;;;16.06;46.94;155486.25;4991080;28;20469;-83
2023/05/31 04:51:21;;;;;;;2.80;2.00;;;;;;;16.09;46.87;155494.06;5007014;28;20466;-82
2023/05/31 04:53:48;;;;;;;3.33;2.33;;;;;;;16.12;46.43;155501.88;4975048;28;20469;-82
2023/05/31 04:56:16;;;;;;;3.53;2.43;;;;;;;16.19;47.21;155520.03;4974208;28;20935;-83
2023/05/31 04:58:43;;;;;;;3.40;2.43;;;;;;;16.26;46.72;155539.56;4974794;28;20447;-82
2023/05/31 05:01:12;;;;;;;3.97;1.93;;;;;;;16.31;46.88;155551.25;4989693;28;20963;-82
2023/05/31 05:03:56;;;;;;;3.47;2.60;;;;;;;16.37;46.71;155566.84;4971144;28;20476;-82
2023/05/31 05:06:24;;;;;;;3.20;2.03;;;;;;;16.42;46.04;155581.16;4988923;28;20954;-82
2023/05/31 05:08:51;;;;;;;5.63;2.43;;;;;;;16.43;46.20;155582.47;4989141;28;20508;-82
2023/05/31 05:11:18;;;;;;;3.60;2.50;;;;;;;16.53;46.54;155608.53;4967757;28;20805;-82
2023/05/31 05:13:45;;;;;;;3.13;2.53;;;;;;;16.57;46.68;155618.97;4969906;28;20438;-82
2023/05/31 05:16:11;;;;;;;3.80;2.13;;;;;;;16.68;46.42;155647.53;5002307;28;20552;-82
2023/05/31 05:18:38;;;;;;;2.93;1.93;;;;;;;16.80;45.78;155678.78;4971547;28;20505;-82
2023/05/31 05:21:05;;;;;;;7.40;2.40;;;;;;;16.90;45.66;155703.50;4997062;28;20458;-82
2023/05/31 05:23:37;;;;;;;3.10;2.50;;;;;;;16.90;45.34;155703.50;4983838;28;20561;-82
2023/05/31 05:26:04;;;;;;;3.53;2.43;;;;;;;16.95;45.99;155717.81;5000183;28;20487;-83
2023/05/31 05:28:30;;;;;;;2.90;2.27;;;;;;;17.23;45.60;155788.09;4975581;28;20446;-83
2023/05/31 05:30:57;;;;;;;2.80;2.40;;;;;;;17.22;45.20;155785.47;5003548;28;20496;-82
2023/05/31 05:33:26;;;;;;;3.17;2.27;;;;;;;17.31;45.37;155808.91;5003958;28;20897;-82
2023/05/31 05:35:52;;;;;;;4.27;2.47;;;;;;;17.36;45.10;155821.94;5024440;28;20449;-82
2023/05/31 05:38:20;;;;;;;5.40;2.47;;;;;;;17.52;45.35;155863.59;4991174;28;20528;-82
2023/05/31 05:40:49;;;;;;;3.17;2.50;;;;;;;17.83;45.54;155943.03;4991356;28;20536;-83
2023/05/31 05:43:15;;;;;;;3.17;2.50;;;;;;;18.04;44.54;155999.03;5023479;28;20441;-82
2023/05/31 05:45:56;;;;;;;4.33;2.10;;;;;;;17.86;43.18;155952.16;4991186;28;20457;-82
2023/05/31 05:48:23;;;;;;;3.27;2.13;;;;;;;17.70;43.73;155909.19;4987287;28;20497;-82
2023/05/31 05:50:50;;;;;;;4.90;2.53;;;;;;;17.60;44.09;155884.47;5005254;28;20446;-82
2023/05/31 05:53:16;;;;;;;3.23;2.10;;;;;;;17.79;43.71;155932.63;4971485;28;20439;-82
2023/05/31 05:55:50;;;;;;;4.10;2.30;;;;;;;17.98;44.48;155983.38;4971414;28;20957;-83
2023/05/31 05:58:21;;;;;;;3.30;2.43;;;;;;;18.03;43.24;155996.41;4987449;28;20453;-83
2023/05/31 06:01:07;;;;;;;2.70;2.23;;;;;;;18.01;43.14;155989.88;4987681;28;20552;-82
2023/05/31 06:03:37;;;;;;;6.03;3.07;;;;;;;18.05;43.85;156001.66;4988081;28;20465;-82
2023/05/31 06:06:05;;;;;;;4.77;2.43;;;;;;;18.31;43.54;156068.06;4988329;28;20458;-82
2023/05/31 06:08:32;;;;;;;3.83;2.53;;;;;;;18.27;42.67;156058.91;4972133;28;20458;-82
2023/05/31 06:11:00;;;;;;;4.57;2.50;;;;;;;18.20;44.00;156040.69;4987876;28;20482;-82
2023/05/31 06:13:27;;;;;;;4.23;2.30;;;;;;;18.66;44.15;156158.00;4987795;28;20849;-83
2023/05/31 06:15:54;;;;;;;6.67;2.30;;;;;;;18.92;42.61;156224.41;4988251;28;20541;-83
2023/05/31 06:18:20;;;;;;;3.30;2.30;;;;;;;19.05;41.99;156259.59;4990696;28;20460;-83
2023/05/31 06:20:47;;;;;;;2.70;2.23;;;;;;;18.97;41.87;156238.75;4990586;28;20567;-83
2023/05/31 06:23:13;;;;;;;4.50;2.50;;;;;;;18.96;41.42;156236.13;4990504;28;21023;-83
2023/05/31 06:25:41;;;;;;;3.57;2.60;;;;;;;18.76;42.22;156184.03;4990831;28;20484;-82
2023/05/31 06:28:10;;;;;;;7.13;2.23;;;;;;;19.05;43.23;156259.59;4986653;28;20450;-83
2023/05/31 06:30:38;;;;;;;2.23;1.90;;;;;;;19.33;42.29;156332.56;4970667;28;20442;-83
2023/05/31 06:33:05;;;;;;;3.03;2.00;;;;;;;19.52;41.10;156380.84;4986564;28;20512;-83
2023/05/31 06:35:32;;;;;;;2.90;2.60;;;;;;;19.51;42.72;156378.28;4970907;28;20450;-82
2023/05/31 06:38:00;;;;;;;2.70;2.50;;;;;;;19.69;42.51;156423.88;5002696;28;20446;-83
2023/05/31 06:40:26;;;;;;;2.63;2.30;;;;;;;20.06;41.58;156520.38;4954984;28;20791;-83
2023/05/31 06:42:53;;;;;;;3.77;2.70;;;;;;;20.00;41.06;156504.72;4972735;28;20807;-83
2023/05/31 06:45:41;;;;;;;3.90;2.80;;;;;;;19.91;41.32;156482.53;4969162;28;20529;-83
2023/05/31 06:48:26;;;;;;;9.83;3.20;;;;;;;20.12;41.14;156536.00;5008719;28;20442;-83
2023/05/31 06:51:28;;;;;;;4.00;2.40;;;;;;;20.01;41.17;156507.34;4997784;28;20929;-83
2023/05/31 06:54:13;;;;;;;3.77;2.63;;;;;;;20.05;41.49;156517.75;4989472;28;20465;-83
2023/05/31 06:56:40;;;;;;;3.03;2.70;;;;;;;20.23;41.43;156563.38;4990222;28;20859;-83
2023/05/31 06:59:07;;;;;;;4.87;2.80;;;;;;;20.52;41.04;156640.41;4989642;28;20815;-83
2023/05/31 07:01:36;;;;;;;4.63;3.03;;;;;;;20.73;40.12;156692.63;4973535;28;20555;-83
2023/05/31 07:04:02;;;;;;;5.90;2.50;;;;;;;20.67;40.34;156676.94;4990844;28;20874;-83
2023/05/31 07:06:29;;;;;;;3.70;2.10;;;;;;;20.85;40.42;156723.91;4991260;28;20496;-83
2023/05/31 07:08:55;;;;;;;5.27;2.93;;;;;;;20.93;40.17;156746.09;5005722;28;20540;-83
2023/05/31 07:11:34;;;;;;;4.57;2.53;;;;;;;21.21;40.37;156819.22;4989464;28;20484;-83
2023/05/31 07:14:03;;;;;;;4.93;2.93;;;;;;;21.34;39.46;156851.81;4989572;28;20444;-83
2023/05/31 07:16:30;;;;;;;3.40;2.67;;;;;;;21.32;39.78;156846.63;4994329;28;20823;-82
2023/05/31 07:19:00;;;;;;;3.30;2.07;;;;;;;21.22;39.13;156820.53;4981326;28;20457;-83
2023/05/31 07:21:26;;;;;;;3.43;2.40;;;;;;;21.11;39.84;156793.13;5023383;28;20460;-83
2023/05/31 07:23:53;;;;;;;4.77;2.97;;;;;;;21.19;39.85;156814.00;4990371;28;20449;-83
2023/05/31 07:26:20;;;;;;;3.50;2.90;;;;;;;21.31;39.57;156842.72;4989556;28;20449;-83
2023/05/31 07:28:47;;;;;;;5.17;2.80;;;;;;;21.55;39.62;156906.66;5021634;28;20442;-83
2023/05/31 07:31:15;;;;;;;4.60;2.50;;;;;;;21.79;39.06;156969.31;4990980;28;20468;-84
2023/05/31 07:33:41;;;;;;;5.93;2.87;;;;;;;21.54;39.42;156902.75;4989195;28;20450;-83
2023/05/31 07:36:10;;;;;;;4.43;2.70;;;;;;;21.63;39.91;156927.53;4990887;28;20449;-83
2023/05/31 07:38:36;;;;;;;3.30;2.60;;;;;;;21.72;38.57;156949.75;4988680;28;20445;-83
2023/05/31 07:41:03;;;;;;;3.70;2.87;;;;;;;21.91;38.28;156998.09;5005363;28;20504;-83
2023/05/31 07:43:30;;;;;;;4.50;3.00;;;;;;;22.06;38.83;157038.56;4990112;28;20445;-84
2023/05/31 07:45:57;;;;;;;4.00;3.10;;;;;;;22.01;38.08;157024.22;4990350;28;20480;-83
2023/05/31 07:48:24;;;;;;;4.87;3.10;;;;;;;22.12;38.40;157054.25;4989956;28;20473;-83
2023/05/31 07:50:51;;;;;;;8.10;2.90;;;;;;;22.19;38.41;157072.53;4976051;28;21075;-83
2023/05/31 07:53:19;;;;;;;3.80;2.70;;;;;;;22.39;38.64;157123.47;5001621;28;20438;-83
2023/05/31 07:55:46;;;;;;;3.00;2.23;;;;;;;22.27;37.75;157093.44;4985389;28;20596;-83
2023/05/31 07:58:12;;;;;;;8.90;3.00;;;;;;;22.29;37.96;157097.38;4985405;28;20622;-83
2023/05/31 08:00:39;;;;;;;4.27;2.83;;;;;;;22.48;38.22;157145.69;5001772;28;20526;-83
2023/05/31 08:03:06;;;;;;;4.77;2.73;;;;;;;22.70;38.30;157204.50;4970573;28;20442;-83
2023/05/31 08:05:33;;;;;;;3.80;2.40;;;;;;;22.39;38.47;157124.81;5001785;28;20819;-83
2023/05/31 08:08:00;;;;;;;4.57;2.87;;;;;;;22.48;37.71;157146.97;4986182;28;20832;-83
2023/05/31 08:10:29;;;;;;;3.53;3.07;;;;;;;22.31;37.92;157102.59;4985053;28;20462;-84
2023/05/31 08:12:56;;;;;;;5.60;2.87;;;;;;;22.53;38.48;157158.75;4970589;28;20471;-83
2023/05/31 08:15:22;;;;;;;5.23;2.17;;;;;;;22.58;37.41;157171.81;4970036;28;20791;-83
2023/05/31 08:17:50;;;;;;;4.70;3.07;;;;;;;22.27;37.78;157093.44;4980528;28;20500;-83
2023/05/31 08:20:17;;;;;;;7.07;2.80;;;;;;;22.28;38.11;157096.06;5037807;28;20479;-83
2023/05/31 08:22:44;;;;;;;3.73;2.50;;;;;;;22.11;38.05;157050.31;4996675;28;20880;-83
2023/05/31 08:25:12;;;;;;;5.57;3.70;;;;;;;22.07;38.60;157039.88;4972285;28;20940;-83
2023/05/31 08:27:41;;;;;;;4.40;3.07;;;;;;;22.18;38.66;157068.63;5001752;28;20493;-83
2023/05/31 08:30:10;;;;;;;3.50;2.70;;;;;;;22.26;38.70;157089.53;5020954;28;20444;-83
2023/05/31 08:32:36;;;;;;;4.30;3.03;;;;;;;22.05;38.48;157034.69;5020733;28;20873;-83
2023/05/31 08:35:03;;;;;;;5.00;2.87;;;;;;;21.77;39.19;156964.09;5020961;28;20500;-83
2023/05/31 08:37:30;;;;;;;4.73;2.77;;;;;;;21.75;38.94;156957.59;5020584;28;20515;-83
2023/05/31 08:39:56;;;;;;;7.70;3.57;;;;;;;21.96;39.65;157011.16;5020517;28;20442;-83
2023/05/31 08:42:26;;;;;;;3.17;2.47;;;;;;;22.39;38.83;157123.47;5019868;28;20461;-83
2023/05/31 08:44:54;;;;;;;3.90;3.00;;;;;;;22.39;38.38;157124.81;4989173;28;20475;-83
2023/05/31 08:47:25;;;;;;;5.27;3.00;;;;;;;22.28;38.85;157094.75;5020933;28;20442;-83
2023/05/31 08:49:52;;;;;;;3.43;3.13;;;;;;;22.35;38.33;157113.00;4988751;28;20878;-84
2023/05/31 08:52:20;;;;;;;8.70;3.97;;;;;;;22.74;38.39;157214.94;5020290;28;20446;-85
2023/05/31 08:54:47;;;;;;;3.43;3.13;;;;;;;23.14;37.45;157316.91;5020418;28;20440;-84
2023/05/31 08:57:14;;;;;;;3.13;2.83;;;;;;;23.22;37.79;157339.06;4988027;28;20869;-84
2023/05/31 08:59:41;;;;;;;3.57;2.90;;;;;;;23.45;37.14;157399.28;5000684;28;20430;-84
2023/05/31 09:02:09;;;;;;;4.33;2.50;;;;;;;23.42;37.88;157390.13;5000937;28;20506;-84
2023/05/31 09:04:36;;;;;;;5.10;2.70;;;;;;;23.32;37.73;157365.25;5000791;28;20742;-84
2023/05/31 09:07:03;;;;;;;3.90;2.50;;;;;;;23.46;37.62;157400.56;4969924;28;21141;-84
2023/05/31 09:09:29;;;;;;;4.70;2.83;;;;;;;23.01;37.20;157284.19;4986960;28;20469;-83
2023/05/31 09:11:56;;;;;;;3.70;2.57;;;;;;;22.76;37.44;157220.22;4989077;28;20452;-84
2023/05/31 09:14:23;;;;;;;4.60;3.00;;;;;;;22.80;37.61;157229.31;4989721;28;20445;-84
2023/05/31 09:16:50;;;;;;;3.20;2.80;;;;;;;23.16;36.86;157323.44;4971344;28;20458;-84
2023/05/31 09:19:18;;;;;;;4.67;3.17;;;;;;;23.35;37.19;157371.78;4987515;28;20446;-84
2023/05/31 09:21:46;;;;;;;4.53;2.77;;;;;;;23.18;38.35;157328.66;4991568;28;20448;-84
2023/05/31 09:24:14;;;;;;;9.67;2.90;;;;;;;23.36;36.76;157374.38;4991070;28;20568;-84
2023/05/31 09:26:47;;;;;;;3.40;2.80;;;;;;;23.52;37.17;157416.25;5023298;28;20476;-84
2023/05/31 09:29:15;;;;;;;3.27;2.90;;;;;;;23.77;35.28;157480.31;5023347;28;20440;-84
2023/05/31 09:31:42;;;;;;;5.20;2.73;;;;;;;23.71;35.48;157465.94;5005711;28;20464;-84
2023/05/31 09:34:30;;;;;;;4.10;3.00;;;;;;;23.02;35.27;157286.81;5008878;28;20447;-83
2023/05/31 09:36:58;;;;;;;5.00;2.90;;;;;;;22.53;36.21;157158.75;4990570;28;20452;-83
2023/05/31 09:39:25;;;;;;;4.70;3.00;;;;;;;22.61;36.56;157180.94;5008386;28;20441;-85
2023/05/31 09:41:52;;;;;;;3.63;2.60;;;;;;;22.96;35.26;157272.44;5006834;28;20452;-84
2023/05/31 09:44:19;;;;;;;4.80;2.70;;;;;;;22.73;35.45;157212.34;5009007;28;20468;-84
2023/05/31 09:46:46;;;;;;;4.40;3.53;;;;;;;22.97;36.13;157273.75;5008270;28;20468;-84
2023/05/31 09:49:12;;;;;;;3.97;2.93;;;;;;;23.20;34.61;157333.88;5009188;28;20560;-84
2023/05/31 09:51:40;;;;;;;3.67;2.93;;;;;;;23.56;34.36;157426.75;5009033;28;20456;-85
2023/05/31 09:54:11;;;;;;;5.13;2.70;;;;;;;23.48;34.07;157407.09;4992377;28;20445;-86
2023/05/31 09:56:39;;;;;;;2.67;2.30;;;;;;;23.59;34.03;157434.53;4975518;28;20970;-86
2023/05/31 09:59:06;;;;;;;7.03;3.30;;;;;;;23.51;34.37;157413.69;5009898;28;20452;-86
2023/05/31 10:01:34;;;;;;;3.70;2.73;;;;;;;23.62;33.68;157442.38;4990895;28;20918;-85
2023/05/31 10:04:03;;;;;;;3.97;2.70;;;;;;;23.47;35.24;157403.19;5018454;28;20476;-85
2023/05/31 10:06:31;;;;;;;4.80;2.57;;;;;;;23.65;34.78;157450.25;4998650;28;20474;-85
2023/05/31 10:08:58;;;;;;;4.30;3.00;;;;;;;23.15;35.09;157320.81;4989504;28;20939;-84
2023/05/31 10:11:28;;;;;;;9.00;2.90;;;;;;;22.59;35.21;157175.72;4968792;28;20509;-83
2023/05/31 10:13:58;;;;;;;3.63;2.70;;;;;;;22.50;37.01;157152.22;4969331;28;20443;-84
2023/05/31 10:16:27;;;;;;;3.53;2.60;;;;;;;22.76;35.62;157220.22;4983696;28;20446;-84
2023/05/31 10:18:55;;;;;;;3.20;2.77;;;;;;;22.79;35.56;157226.75;4984796;28;20438;-84
2023/05/31 10:21:24;;;;;;;5.23;2.97;;;;;;;22.86;35.49;157246.31;4995363;28;20468;-84
2023/05/31 10:23:56;;;;;;;4.97;3.00;;;;;;;22.69;35.11;157201.88;4992864;28;20442;-84
2023/05/31 10:26:28;;;;;;;3.50;2.73;;;;;;;22.65;35.87;157191.47;4972992;28;20478;-84
2023/05/31 10:28:56;;;;;;;4.00;2.67;;;;;;;22.93;35.30;157263.28;4998210;28;20441;-85
2023/05/31 10:31:26;;;;;;;3.77;2.70;;;;;;;23.15;35.44;157319.47;4992237;28;20873;-84
2023/05/31 10:33:56;;;;;;;2.97;2.60;;;;;;;23.14;35.84;157318.16;5007269;28;20852;-84
2023/05/31 10:36:23;;;;;;;3.80;2.90;;;;;;;23.12;34.90;157311.63;5007296;28;20465;-84
2023/05/31 10:38:59;;;;;;;2.30;2.10;;;;;;;23.29;35.01;157357.41;5007441;28;20449;-85
2023/05/31 10:41:33;;;;;;;2.90;2.20;;;;;;;23.19;34.80;157329.97;4987782;28;20454;-84
2023/05/31 10:44:04;;;;;;;4.67;2.67;;;;;;;23.11;35.08;157309.06;4987484;28;20850;-85
2023/05/31 10:46:31;;;;;;;3.37;2.50;;;;;;;23.15;35.63;157320.81;4986542;28;20474;-84
2023/05/31 10:48:59;;;;;;;3.60;3.10;;;;;;;23.31;35.01;157361.31;5002818;28;20458;-84
2023/05/31 10:51:39;;;;;;;2.83;2.30;;;;;;;23.13;34.27;157314.28;5005583;28;21247;-84
2023/05/31 10:54:06;;;;;;;3.70;2.80;;;;;;;23.20;34.79;157332.53;5006598;28;20446;-84
2023/05/31 10:56:37;;;;;;;3.00;2.43;;;;;;;23.24;34.90;157343.03;4988956;28;20449;-84
2023/05/31 10:59:04;;;;;;;5.30;2.87;;;;;;;23.18;34.81;157327.34;4973767;28;20434;-84
2023/05/31 11:01:30;;;;;;;3.70;2.67;;;;;;;23.24;34.63;157344.34;5005843;28;20576;-84
2023/05/31 11:03:57;;;;;;;3.80;2.40;;;;;;;23.29;34.81;157356.09;5006039;28;20911;-84
2023/05/31 11:06:28;;;;;;;7.03;2.97;;;;;;;23.20;35.72;157333.88;5005672;28;20481;-84
2023/05/31 11:08:59;;;;;;;4.30;3.00;;;;;;;23.24;35.34;157343.03;4991305;28;20936;-84
2023/05/31 11:11:26;;;;;;;5.17;2.87;;;;;;;23.14;35.20;157318.16;4986192;28;20477;-84
2023/05/31 11:13:59;;;;;;;5.63;3.00;;;;;;;22.84;34.66;157241.13;4992977;28;20808;-84
2023/05/31 11:16:26;;;;;;;5.17;2.70;;;;;;;22.63;35.21;157186.25;5005657;28;20512;-84
2023/05/31 11:19:03;;;;;;;5.17;2.83;;;;;;;22.69;35.49;157201.88;4989690;28;20442;-84
2023/05/31 11:21:49;;;;;;;3.10;2.73;;;;;;;22.76;34.59;157218.88;5017652;28;21002;-84
2023/05/31 11:24:29;;;;;;;4.20;3.10;;;;;;;22.86;35.97;157245.00;5008338;28;20444;-84
2023/05/31 11:26:58;;;;;;;3.57;2.77;;;;;;;22.87;35.12;157248.97;5005333;28;20488;-84
2023/05/31 11:29:26;;;;;;;3.30;2.33;;;;;;;22.83;35.06;157238.47;4990840;28;20449;-84
2023/05/31 11:31:58;;;;;;;2.53;1.97;;;;;;;23.02;33.97;157286.81;4987479;28;20948;-83